createdAt,value
2017-04-24T00:00:37.440Z,20.94
2017-04-24T00:01:47.358Z,20.94
2017-04-24T00:02:57.862Z,20.91
2017-04-24T00:04:07.771Z,21.03
2017-04-24T00:05:17.974Z,20.95
2017-04-24T00:06:28.183Z,20.94
2017-04-24T00:07:37.785Z,20.97
2017-04-24T00:08:47.937Z,20.98
2017-04-24T00:09:58.153Z,20.92
2017-04-24T00:11:08.358Z,20.94
2017-04-24T00:12:17.962Z,20.95
2017-04-24T00:13:28.177Z,20.92
2017-04-24T00:14:38.214Z,20.94
2017-04-24T00:15:48.113Z,20.97
2017-04-24T00:16:58.036Z,21.01
2017-04-24T00:18:07.022Z,20.91
2017-04-24T00:19:16.321Z,20.94
2017-04-24T00:20:26.189Z,20.91
2017-04-24T00:21:35.777Z,20.91
2017-04-24T00:22:45.982Z,20.92
2017-04-24T00:23:55.878Z,20.84
2017-04-24T00:25:05.779Z,20.87
2017-04-24T00:26:15.533Z,20.94
2017-04-24T00:27:26.115Z,20.87
2017-04-24T00:28:36.318Z,20.95
2017-04-24T00:29:46.227Z,20.79
2017-04-24T00:30:56.433Z,20.84
2017-04-24T00:32:05.973Z,20.84
2017-04-24T00:33:15.885Z,20.8
2017-04-24T00:34:25.179Z,20.85
2017-04-24T00:35:35.082Z,20.91
2017-04-24T00:36:44.978Z,20.85
2017-04-24T00:37:54.884Z,20.87
2017-04-24T00:39:05.083Z,20.88
2017-04-24T00:40:14.987Z,20.85
2017-04-24T00:41:25.202Z,20.85
2017-04-24T00:42:35.093Z,20.85
2017-04-24T00:43:45.103Z,20.87
2017-04-24T00:44:55.003Z,20.84
2017-04-24T00:46:05.212Z,20.85
2017-04-24T00:47:15.418Z,20.85
2017-04-24T00:48:25.308Z,20.88
2017-04-24T00:49:35.826Z,20.92
2017-04-24T00:50:46.031Z,20.88
2017-04-24T00:51:56.234Z,20.88
2017-04-24T00:53:06.125Z,20.77
2017-04-24T00:54:16.013Z,20.82
2017-04-24T00:55:26.367Z,20.76
2017-04-24T00:56:36.575Z,20.87
2017-04-24T00:57:46.803Z,20.82
2017-04-24T00:58:57.016Z,20.89
2017-04-24T01:00:06.315Z,20.85
2017-04-24T01:01:16.253Z,20.87
2017-04-24T01:02:26.158Z,20.85
2017-04-24T01:03:36.362Z,20.8
2017-04-24T01:04:46.265Z,20.79
2017-04-24T01:05:56.162Z,20.77
2017-04-24T01:07:06.618Z,20.79
2017-04-24T01:08:16.210Z,20.77
2017-04-24T01:09:26.116Z,20.84
2017-04-24T01:10:36.024Z,20.77
2017-04-24T01:11:45.920Z,20.77
2017-04-24T01:12:56.161Z,20.74
2017-04-24T01:14:05.767Z,20.8
2017-04-24T01:15:15.361Z,20.82
2017-04-24T01:16:25.254Z,20.77
2017-04-24T01:17:35.460Z,20.79
2017-04-24T01:18:45.523Z,20.76
2017-04-24T01:19:55.758Z,20.84
2017-04-24T01:21:05.657Z,20.74
2017-04-24T01:22:15.545Z,20.77
2017-04-24T01:23:25.434Z,20.79
2017-04-24T01:24:35.628Z,20.77
2017-04-24T01:25:45.845Z,20.79
2017-04-24T01:26:56.044Z,20.85
2017-04-24T01:28:05.627Z,20.84
2017-04-24T01:29:15.519Z,20.82
2017-04-24T01:30:25.423Z,20.84
2017-04-24T01:31:35.328Z,20.74
2017-04-24T01:32:45.534Z,20.79
2017-04-24T01:33:55.138Z,20.8
2017-04-24T01:35:04.746Z,20.84
2017-04-24T01:36:14.513Z,20.79
2017-04-24T01:37:24.417Z,20.77
2017-04-24T01:38:34.317Z,20.84
2017-04-24T01:39:43.947Z,20.79
2017-04-24T01:40:53.564Z,20.84
2017-04-24T01:42:03.719Z,20.82
2017-04-24T01:43:13.344Z,20.87
2017-04-24T01:44:22.940Z,20.82
2017-04-24T01:45:32.852Z,20.77
2017-04-24T01:46:43.060Z,20.69
2017-04-24T01:47:52.806Z,20.66
2017-04-24T01:49:03.013Z,20.72
2017-04-24T01:50:12.915Z,20.67
2017-04-24T01:51:22.498Z,20.72
2017-04-24T01:52:32.105Z,20.67
2017-04-24T01:53:42.270Z,20.73
2017-04-24T01:54:52.470Z,20.76
2017-04-24T01:56:02.058Z,20.76
2017-04-24T01:57:11.955Z,20.79
2017-04-24T01:58:22.166Z,20.79
2017-04-24T01:59:32.216Z,20.72
2017-04-24T02:00:41.807Z,20.64
2017-04-24T02:01:52.022Z,20.69
2017-04-24T02:03:01.916Z,20.74
2017-04-24T02:04:11.813Z,20.69
2017-04-24T02:05:22.339Z,20.69
2017-04-24T02:06:31.936Z,20.73
2017-04-24T02:07:41.837Z,20.73
2017-04-24T02:08:51.431Z,20.67
2017-04-24T02:10:01.655Z,20.67
2017-04-24T02:11:12.178Z,20.69
2017-04-24T02:12:22.385Z,20.69
2017-04-24T02:13:32.293Z,20.67
2017-04-24T02:14:42.515Z,20.66
2017-04-24T02:15:52.102Z,20.73
2017-04-24T02:17:01.994Z,20.7
2017-04-24T02:18:11.586Z,20.67
2017-04-24T02:19:21.485Z,20.69
2017-04-24T02:20:31.380Z,20.67
2017-04-24T02:21:40.973Z,20.66
2017-04-24T02:22:50.829Z,20.7
2017-04-24T02:24:00.424Z,20.67
2017-04-24T02:25:10.626Z,20.67
2017-04-24T02:26:20.219Z,20.7
2017-04-24T02:27:30.424Z,20.66
2017-04-24T02:28:40.873Z,20.7
2017-04-24T02:29:51.073Z,20.72
2017-04-24T02:31:01.284Z,20.69
2017-04-24T02:32:10.874Z,20.7
2017-04-24T02:33:21.078Z,20.72
2017-04-24T02:34:30.982Z,20.66
2017-04-24T02:35:41.181Z,20.69
2017-04-24T02:36:51.393Z,20.69
2017-04-24T02:38:01.601Z,20.7
2017-04-24T02:39:11.493Z,20.67
2017-04-24T02:40:21.739Z,20.74
2017-04-24T02:41:31.636Z,20.69
2017-04-24T02:42:41.844Z,20.69
2017-04-24T02:43:51.444Z,20.69
2017-04-24T02:45:01.661Z,20.69
2017-04-24T02:46:11.806Z,20.64
2017-04-24T02:47:21.703Z,20.69
2017-04-24T02:48:31.913Z,20.67
2017-04-24T02:49:41.529Z,20.7
2017-04-24T02:50:51.422Z,20.67
2017-04-24T02:52:01.371Z,20.58
2017-04-24T02:53:11.276Z,20.7
2017-04-24T02:54:20.873Z,20.58
2017-04-24T02:55:31.070Z,20.62
2017-04-24T02:56:40.974Z,20.66
2017-04-24T02:57:50.983Z,20.55
2017-04-24T02:59:01.195Z,20.66
2017-04-24T03:00:11.410Z,20.54
2017-04-24T03:01:20.697Z,20.66
2017-04-24T03:02:30.910Z,20.61
2017-04-24T03:03:40.909Z,20.66
2017-04-24T03:04:50.195Z,20.61
2017-04-24T03:05:59.803Z,20.59
2017-04-24T03:07:09.699Z,20.62
2017-04-24T03:08:19.601Z,20.61
2017-04-24T03:09:30.109Z,20.67
2017-04-24T03:10:40.316Z,20.61
2017-04-24T03:11:50.521Z,20.59
2017-04-24T03:13:00.434Z,20.62
2017-04-24T03:14:09.722Z,20.61
2017-04-24T03:15:20.250Z,20.55
2017-04-24T03:16:30.148Z,20.51
2017-04-24T03:17:40.368Z,20.55
2017-04-24T03:18:50.273Z,20.57
2017-04-24T03:20:00.493Z,20.51
2017-04-24T03:21:09.881Z,20.58
2017-04-24T03:22:19.772Z,20.55
2017-04-24T03:23:29.985Z,20.54
2017-04-24T03:24:39.901Z,20.54
2017-04-24T03:25:49.804Z,20.41
2017-04-24T03:27:00.324Z,20.5
2017-04-24T03:28:10.537Z,20.58
2017-04-24T03:29:20.136Z,20.59
2017-04-24T03:30:30.025Z,20.47
2017-04-24T03:31:40.231Z,20.47
2017-04-24T03:32:50.398Z,20.58
2017-04-24T03:34:00.302Z,20.57
2017-04-24T03:35:10.520Z,20.48
2017-04-24T03:36:20.413Z,20.41
2017-04-24T03:37:30.628Z,20.54
2017-04-24T03:38:40.884Z,20.41
2017-04-24T03:39:51.085Z,20.54
2017-04-24T03:41:00.983Z,20.51
2017-04-24T03:42:11.207Z,20.42
2017-04-24T03:43:20.793Z,20.43
2017-04-24T03:44:31.049Z,20.42
2017-04-24T03:45:40.947Z,20.55
2017-04-24T03:46:51.152Z,20.55
2017-04-24T03:48:00.436Z,20.48
2017-04-24T03:49:10.388Z,20.54
2017-04-24T03:50:20.909Z,20.54
2017-04-24T03:51:30.193Z,20.58
2017-04-24T03:52:40.088Z,20.51
2017-04-24T03:53:50.293Z,20.47
2017-04-24T03:55:00.496Z,20.48
2017-04-24T03:56:10.028Z,20.51
2017-04-24T03:57:19.941Z,20.57
2017-04-24T03:58:29.835Z,20.51
2017-04-24T03:59:40.036Z,20.55
2017-04-24T04:00:50.237Z,20.52
2017-04-24T04:02:00.109Z,20.39
2017-04-24T04:03:09.395Z,20.48
2017-04-24T04:04:19.291Z,20.51
2017-04-24T04:05:29.204Z,20.54
2017-04-24T04:06:39.112Z,20.39
2017-04-24T04:07:49.441Z,20.51
2017-04-24T04:08:59.033Z,20.47
2017-04-24T04:10:08.951Z,20.47
2017-04-24T04:11:18.543Z,20.55
2017-04-24T04:12:28.448Z,20.36
2017-04-24T04:13:38.848Z,20.39
2017-04-24T04:14:49.164Z,20.5
2017-04-24T04:15:58.756Z,20.47
2017-04-24T04:17:08.653Z,20.5
2017-04-24T04:18:18.235Z,20.52
2017-04-24T04:19:27.994Z,20.51
2017-04-24T04:20:38.201Z,20.52
2017-04-24T04:21:48.111Z,20.41
2017-04-24T04:22:58.319Z,20.39
2017-04-24T04:24:07.918Z,20.42
2017-04-24T04:25:18.413Z,20.35
2017-04-24T04:26:28.628Z,20.52
2017-04-24T04:27:37.920Z,20.47
2017-04-24T04:28:47.520Z,20.51
2017-04-24T04:29:57.723Z,20.5
2017-04-24T04:31:08.222Z,20.5
2017-04-24T04:32:17.830Z,20.55
2017-04-24T04:33:28.078Z,20.43
2017-04-24T04:34:38.310Z,20.5
2017-04-24T04:35:48.235Z,20.43
2017-04-24T04:36:58.696Z,20.54
2017-04-24T04:38:08.602Z,20.57
2017-04-24T04:39:18.843Z,20.55
2017-04-24T04:40:29.092Z,20.58
2017-04-24T04:41:38.692Z,20.57
2017-04-24T04:42:48.597Z,20.58
2017-04-24T04:43:57.886Z,20.61
2017-04-24T04:45:07.801Z,20.7
2017-04-24T04:46:17.736Z,20.73
2017-04-24T04:47:27.677Z,20.64
2017-04-24T04:48:38.069Z,20.73
2017-04-24T04:49:48.292Z,20.74
2017-04-24T04:50:58.229Z,20.79
2017-04-24T04:52:08.154Z,20.91
2017-04-24T04:53:17.732Z,20.8
2017-04-24T04:54:28.113Z,20.95
2017-04-24T04:55:37.720Z,20.95
2017-04-24T04:56:47.622Z,20.98
2017-04-24T04:57:57.520Z,21.06
2017-04-24T04:59:07.421Z,21.12
2017-04-24T05:00:17.498Z,21.13
2017-04-24T05:01:27.431Z,21.29
2017-04-24T05:02:37.649Z,21.32
2017-04-24T05:03:48.115Z,21.4
2017-04-24T05:04:58.019Z,21.42
2017-04-24T05:06:08.295Z,21.47
2017-04-24T05:07:18.516Z,21.53
2017-04-24T05:08:28.451Z,21.62
2017-04-24T05:09:38.675Z,21.61
2017-04-24T05:10:48.573Z,21.71
2017-04-24T05:11:59.034Z,21.75
2017-04-24T05:13:08.328Z,21.91
2017-04-24T05:14:17.618Z,21.94
2017-04-24T05:15:27.838Z,21.98
2017-04-24T05:16:37.751Z,22.21
2017-04-24T05:17:48.321Z,22.24
2017-04-24T05:18:57.942Z,22.4
2017-04-24T05:20:07.554Z,22.54
2017-04-24T05:21:17.149Z,22.65
2017-04-24T05:22:26.740Z,22.79
2017-04-24T05:23:36.784Z,22.85
2017-04-24T05:24:46.395Z,22.94
2017-04-24T05:25:56.303Z,23.09
2017-04-24T05:27:06.201Z,23.27
2017-04-24T05:28:16.108Z,23.5
2017-04-24T05:29:26.298Z,23.73
2017-04-24T05:30:36.214Z,23.95
2017-04-24T05:31:45.503Z,24.21
2017-04-24T05:32:55.407Z,24.45
2017-04-24T05:34:05.614Z,24.73
2017-04-24T05:35:15.459Z,24.95
2017-04-24T05:36:25.380Z,25.3
2017-04-24T05:37:35.604Z,25.46
2017-04-24T05:38:45.508Z,25.8
2017-04-24T05:39:55.421Z,26.15
2017-04-24T05:41:05.792Z,26.43
2017-04-24T05:42:15.696Z,26.8
2017-04-24T05:43:25.903Z,27.02
2017-04-24T05:44:36.113Z,27.29
2017-04-24T05:45:46.013Z,27.49
2017-04-24T05:46:55.725Z,27.81
2017-04-24T05:48:05.928Z,27.97
2017-04-24T05:49:15.536Z,28.22
2017-04-24T05:50:25.440Z,28.44
2017-04-24T05:51:35.340Z,28.67
2017-04-24T05:52:45.538Z,28.81
2017-04-24T05:53:54.840Z,29.05
2017-04-24T05:55:04.748Z,29.19
2017-04-24T05:56:14.644Z,29.27
2017-04-24T05:57:24.853Z,29.39
2017-04-24T05:58:34.093Z,29.45
2017-04-24T05:59:44.322Z,29.58
2017-04-24T06:00:53.608Z,29.76
2017-04-24T06:02:02.907Z,29.67
2017-04-24T06:03:13.184Z,29.8
2017-04-24T06:04:23.278Z,29.82
2017-04-24T06:05:33.496Z,29.9
2017-04-24T06:06:43.405Z,30.01
2017-04-24T06:07:52.993Z,30.1
2017-04-24T06:09:02.589Z,29.98
2017-04-24T06:10:12.809Z,29.63
2017-04-24T06:11:22.711Z,29.36
2017-04-24T06:12:32.635Z,28.96
2017-04-24T06:13:42.551Z,28.59
2017-04-24T06:14:52.466Z,28.34
2017-04-24T06:16:02.980Z,28.02
2017-04-24T06:17:12.880Z,27.85
2017-04-24T06:18:22.473Z,27.57
2017-04-24T06:19:32.695Z,27.32
2017-04-24T06:20:42.301Z,27.19
2017-04-24T06:21:52.210Z,26.91
2017-04-24T06:23:02.417Z,26.82
2017-04-24T06:24:12.624Z,26.63
2017-04-24T06:25:22.219Z,26.48
2017-04-24T06:26:32.437Z,26.32
2017-04-24T06:27:42.590Z,26.1
2017-04-24T06:28:52.201Z,25.98
2017-04-24T06:30:02.427Z,25.92
2017-04-24T06:31:12.333Z,25.79
2017-04-24T06:32:22.254Z,25.65
2017-04-24T06:33:32.410Z,25.52
2017-04-24T06:34:42.324Z,25.51
2017-04-24T06:35:52.539Z,25.35
2017-04-24T06:37:02.454Z,25.23
2017-04-24T06:38:12.383Z,25.2
2017-04-24T06:39:22.748Z,25.06
2017-04-24T06:40:32.963Z,24.95
2017-04-24T06:41:42.877Z,24.93
2017-04-24T06:42:53.100Z,24.88
2017-04-24T06:44:03.033Z,24.81
2017-04-24T06:45:13.600Z,24.76
2017-04-24T06:46:23.812Z,24.57
2017-04-24T06:47:33.414Z,24.58
2017-04-24T06:48:43.330Z,24.55
2017-04-24T06:49:52.633Z,24.4
2017-04-24T06:51:02.343Z,24.24
2017-04-24T06:52:12.247Z,24.35
2017-04-24T06:53:22.460Z,24.28
2017-04-24T06:54:32.696Z,24.21
2017-04-24T06:55:42.910Z,24.13
2017-04-24T06:56:52.967Z,24.1
2017-04-24T06:58:02.344Z,24.03
2017-04-24T06:59:12.262Z,23.95
2017-04-24T07:00:22.192Z,23.95
2017-04-24T07:01:32.768Z,23.84
2017-04-24T07:02:42.676Z,23.79
2017-04-24T07:03:52.294Z,23.78
2017-04-24T07:05:02.221Z,23.69
2017-04-24T07:06:11.819Z,23.72
2017-04-24T07:07:21.725Z,23.68
2017-04-24T07:08:32.304Z,23.6
2017-04-24T07:09:42.510Z,23.57
2017-04-24T07:10:52.717Z,23.54
2017-04-24T07:12:02.621Z,23.47
2017-04-24T07:13:12.525Z,23.48
2017-04-24T07:14:22.485Z,23.43
2017-04-24T07:15:32.393Z,23.33
2017-04-24T07:16:41.997Z,23.32
2017-04-24T07:17:51.601Z,23.39
2017-04-24T07:19:00.894Z,23.27
2017-04-24T07:20:10.963Z,23.27
2017-04-24T07:21:21.179Z,23.27
2017-04-24T07:22:31.381Z,23.27
2017-04-24T07:23:41.277Z,23.31
2017-04-24T07:24:51.187Z,23.17
2017-04-24T07:26:01.233Z,23.27
2017-04-24T07:27:11.448Z,23.28
2017-04-24T07:28:21.048Z,23.31
2017-04-24T07:29:31.251Z,23.32
2017-04-24T07:30:41.453Z,23.33
2017-04-24T07:31:51.917Z,23.42
2017-04-24T07:33:01.822Z,23.73
2017-04-24T07:34:11.745Z,24.27
2017-04-24T07:35:21.049Z,24.67
2017-04-24T07:36:30.952Z,24.96
2017-04-24T07:37:41.362Z,25.4
2017-04-24T07:38:51.325Z,25.75
2017-04-24T07:40:00.928Z,25.97
2017-04-24T07:41:10.911Z,26.32
2017-04-24T07:42:20.519Z,26.54
2017-04-24T07:43:30.732Z,26.76
2017-04-24T07:44:40.976Z,26.99
2017-04-24T07:45:50.899Z,27.13
2017-04-24T07:47:00.825Z,27.24
2017-04-24T07:48:10.745Z,27.37
2017-04-24T07:49:20.829Z,27.55
2017-04-24T07:50:31.063Z,27.67
2017-04-24T07:51:41.281Z,27.72
2017-04-24T07:52:50.915Z,27.85
2017-04-24T07:54:00.534Z,27.99
2017-04-24T07:55:10.900Z,28.11
2017-04-24T07:56:21.141Z,28.15
2017-04-24T07:57:31.371Z,28.31
2017-04-24T07:58:41.602Z,28.41
2017-04-24T07:59:51.834Z,28.61
2017-04-24T08:01:02.322Z,28.68
2017-04-24T08:02:12.629Z,28.78
2017-04-24T08:03:22.857Z,28.9
2017-04-24T08:04:33.100Z,28.96
2017-04-24T08:05:42.712Z,29.06
2017-04-24T08:06:53.256Z,29.06
2017-04-24T08:08:03.179Z,29.26
2017-04-24T08:09:13.109Z,29.08
2017-04-24T08:10:23.346Z,28.95
2017-04-24T08:11:32.964Z,28.89
2017-04-24T08:12:43.264Z,28.88
2017-04-24T08:13:53.483Z,28.96
2017-04-24T08:15:03.698Z,29.02
2017-04-24T08:16:13.625Z,29.04
2017-04-24T08:17:23.235Z,29.18
2017-04-24T08:18:33.763Z,29.21
2017-04-24T08:19:43.993Z,29.27
2017-04-24T08:20:53.612Z,29.26
2017-04-24T08:22:03.827Z,29.26
2017-04-24T08:23:14.052Z,29.24
2017-04-24T08:24:24.033Z,29.08
2017-04-24T08:25:33.978Z,28.95
2017-04-24T08:26:43.877Z,28.76
2017-04-24T08:27:53.491Z,28.62
2017-04-24T08:29:03.414Z,28.39
2017-04-24T08:30:13.469Z,28.18
2017-04-24T08:31:23.102Z,28
2017-04-24T08:32:33.041Z,27.85
2017-04-24T08:33:42.706Z,27.67
2017-04-24T08:34:52.638Z,27.51
2017-04-24T08:36:02.906Z,27.22
2017-04-24T08:37:12.825Z,27.29
2017-04-24T08:38:22.743Z,27.02
2017-04-24T08:39:32.666Z,26.84
2017-04-24T08:40:42.944Z,26.82
2017-04-24T08:41:53.440Z,26.62
2017-04-24T08:43:02.745Z,26.43
2017-04-24T08:44:12.349Z,26.32
2017-04-24T08:45:22.283Z,26.23
2017-04-24T08:46:32.197Z,26.01
2017-04-24T08:47:42.376Z,25.94
2017-04-24T08:48:51.676Z,25.95
2017-04-24T08:50:01.612Z,25.8
2017-04-24T08:51:10.914Z,25.7
2017-04-24T08:52:20.536Z,25.57
2017-04-24T08:53:30.727Z,25.51
2017-04-24T08:54:40.402Z,25.43
2017-04-24T08:55:50.032Z,25.36
2017-04-24T08:56:59.956Z,25.32
2017-04-24T08:58:10.181Z,25.27
2017-04-24T08:59:20.400Z,25.23
2017-04-24T09:00:30.313Z,25.17
2017-04-24T09:01:40.224Z,25.1
2017-04-24T09:02:50.149Z,24.98
2017-04-24T09:03:59.784Z,24.96
2017-04-24T09:05:09.799Z,24.95
2017-04-24T09:06:19.712Z,24.81
2017-04-24T09:07:29.633Z,24.8
2017-04-24T09:08:39.591Z,24.77
2017-04-24T09:09:49.508Z,24.8
2017-04-24T09:10:59.877Z,24.68
2017-04-24T09:12:09.867Z,24.62
2017-04-24T09:13:19.783Z,24.55
2017-04-24T09:14:30.000Z,24.6
2017-04-24T09:15:39.621Z,24.6
2017-04-24T09:16:49.471Z,24.49
2017-04-24T09:17:59.081Z,24.52
2017-04-24T09:19:08.985Z,24.46
2017-04-24T09:20:18.887Z,24.4
2017-04-24T09:21:29.106Z,24.46
2017-04-24T09:22:39.664Z,24.32
2017-04-24T09:23:48.949Z,24.31
2017-04-24T09:24:58.553Z,24.4
2017-04-24T09:26:08.760Z,24.34
2017-04-24T09:27:18.359Z,24.37
2017-04-24T09:28:28.884Z,24.28
2017-04-24T09:29:39.099Z,24.27
2017-04-24T09:30:49.316Z,24.34
2017-04-24T09:31:59.215Z,24.3
2017-04-24T09:33:09.124Z,24.1
2017-04-24T09:34:19.381Z,24.18
2017-04-24T09:35:29.635Z,24.18
2017-04-24T09:36:40.231Z,24.09
2017-04-24T09:37:50.469Z,24.1
2017-04-24T09:39:00.086Z,24.09
2017-04-24T09:40:10.296Z,24.06
2017-04-24T09:41:20.501Z,23.98
2017-04-24T09:42:30.409Z,23.91
2017-04-24T09:43:40.006Z,23.9
2017-04-24T09:44:49.627Z,23.9
2017-04-24T09:45:59.992Z,23.87
2017-04-24T09:47:09.595Z,23.91
2017-04-24T09:48:19.194Z,23.88
2017-04-24T09:49:28.800Z,23.85
2017-04-24T09:50:39.014Z,23.79
2017-04-24T09:51:48.975Z,23.78
2017-04-24T09:52:59.196Z,23.79
2017-04-24T09:54:08.495Z,23.78
2017-04-24T09:55:18.400Z,23.76
2017-04-24T09:56:28.608Z,23.79
2017-04-24T09:57:39.131Z,23.65
2017-04-24T09:58:49.042Z,23.7
2017-04-24T09:59:58.951Z,23.76
2017-04-24T10:01:09.166Z,23.65
2017-04-24T10:02:19.417Z,23.68
2017-04-24T10:03:29.173Z,23.63
2017-04-24T10:04:39.084Z,23.63
2017-04-24T10:05:48.678Z,23.55
2017-04-24T10:06:58.582Z,23.53
2017-04-24T10:08:08.478Z,23.51
2017-04-24T10:09:18.250Z,23.53
2017-04-24T10:10:28.172Z,23.55
2017-04-24T10:11:38.092Z,23.51
2017-04-24T10:12:48.008Z,23.48
2017-04-24T10:13:57.931Z,23.46
2017-04-24T10:15:08.167Z,23.43
2017-04-24T10:16:18.391Z,23.55
2017-04-24T10:17:27.984Z,23.43
2017-04-24T10:18:37.595Z,23.46
2017-04-24T10:19:47.493Z,23.4
2017-04-24T10:20:57.642Z,23.43
2017-04-24T10:22:07.544Z,23.48
2017-04-24T10:23:17.457Z,23.4
2017-04-24T10:24:27.377Z,23.38
2017-04-24T10:25:37.588Z,23.38
2017-04-24T10:26:47.798Z,23.39
2017-04-24T10:27:58.020Z,23.33
2017-04-24T10:29:08.237Z,23.42
2017-04-24T10:30:18.141Z,23.38
2017-04-24T10:31:27.748Z,23.38
2017-04-24T10:32:37.958Z,23.42
2017-04-24T10:33:47.568Z,23.43
2017-04-24T10:34:56.862Z,23.35
2017-04-24T10:36:06.758Z,23.35
2017-04-24T10:37:16.977Z,23.32
2017-04-24T10:38:27.296Z,23.39
2017-04-24T10:39:37.518Z,23.38
2017-04-24T10:40:47.733Z,23.33
2017-04-24T10:41:57.640Z,23.39
2017-04-24T10:43:07.555Z,23.35
2017-04-24T10:44:17.520Z,23.36
2017-04-24T10:45:27.722Z,23.39
2017-04-24T10:46:37.957Z,23.31
2017-04-24T10:47:47.859Z,23.31
2017-04-24T10:48:58.080Z,23.28
2017-04-24T10:50:07.835Z,23.31
2017-04-24T10:51:17.458Z,23.25
2017-04-24T10:52:27.359Z,23.19
2017-04-24T10:53:36.662Z,23.2
2017-04-24T10:54:46.248Z,23.23
2017-04-24T10:55:56.744Z,23.22
2017-04-24T10:57:06.647Z,23.27
2017-04-24T10:58:16.239Z,23.17
2017-04-24T10:59:26.445Z,23.15
2017-04-24T11:00:36.362Z,23.17
2017-04-24T11:01:46.634Z,23.16
2017-04-24T11:02:56.550Z,23.16
2017-04-24T11:04:06.479Z,23.05
2017-04-24T11:05:16.391Z,23.13
2017-04-24T11:06:26.306Z,23
2017-04-24T11:07:36.460Z,23.02
2017-04-24T11:08:46.057Z,23.05
2017-04-24T11:09:55.656Z,23.09
2017-04-24T11:11:04.955Z,23.05
2017-04-24T11:12:14.548Z,23.07
2017-04-24T11:13:24.803Z,23.01
2017-04-24T11:14:34.716Z,22.97
2017-04-24T11:15:44.942Z,23
2017-04-24T11:16:54.856Z,22.94
2017-04-24T11:18:05.094Z,22.97
2017-04-24T11:19:15.160Z,22.95
2017-04-24T11:20:25.123Z,22.98
2017-04-24T11:21:35.360Z,23.01
2017-04-24T11:22:44.952Z,23.05
2017-04-24T11:23:54.864Z,23
2017-04-24T11:25:04.624Z,23.04
2017-04-24T11:26:14.250Z,23.13
2017-04-24T11:27:24.156Z,23.13
2017-04-24T11:28:34.076Z,23.05
2017-04-24T11:29:43.378Z,23.04
2017-04-24T11:30:53.841Z,23.1
2017-04-24T11:32:03.745Z,23.09
2017-04-24T11:33:13.373Z,23.13
2017-04-24T11:34:23.604Z,23.09
2017-04-24T11:35:33.513Z,23.05
2017-04-24T11:36:43.272Z,23.05
2017-04-24T11:37:53.183Z,23.09
2017-04-24T11:39:03.406Z,23.04
2017-04-24T11:40:13.324Z,23.04
2017-04-24T11:41:23.241Z,23.07
2017-04-24T11:42:33.888Z,23.07
2017-04-24T11:43:44.124Z,23.01
2017-04-24T11:44:54.354Z,23.05
2017-04-24T11:46:03.953Z,23.05
2017-04-24T11:47:13.894Z,23.01
2017-04-24T11:48:24.430Z,23.07
2017-04-24T11:49:34.041Z,22.98
2017-04-24T11:50:43.950Z,23.02
2017-04-24T11:51:54.165Z,23.05
2017-04-24T11:53:03.756Z,22.98
2017-04-24T11:54:13.919Z,22.97
2017-04-24T11:55:24.174Z,22.97
2017-04-24T11:56:34.077Z,23.01
2017-04-24T11:57:43.990Z,23.01
2017-04-24T11:58:53.895Z,22.97
2017-04-24T12:00:04.411Z,23.01
2017-04-24T12:01:14.631Z,23.05
2017-04-24T12:02:24.534Z,22.91
2017-04-24T12:03:34.444Z,23.01
2017-04-24T12:04:44.678Z,22.98
2017-04-24T12:05:55.009Z,22.94
2017-04-24T12:07:05.239Z,22.86
2017-04-24T12:08:15.165Z,23
2017-04-24T12:09:25.400Z,22.97
2017-04-24T12:10:35.005Z,22.92
2017-04-24T12:11:45.072Z,22.97
2017-04-24T12:12:54.973Z,22.88
2017-04-24T12:14:04.586Z,22.91
2017-04-24T12:15:14.217Z,22.91
2017-04-24T12:16:23.827Z,22.94
2017-04-24T12:17:34.388Z,22.94
2017-04-24T12:18:43.690Z,22.97
2017-04-24T12:19:53.307Z,22.9
2017-04-24T12:21:03.228Z,22.9
2017-04-24T12:22:12.533Z,22.9
2017-04-24T12:23:22.543Z,22.95
2017-04-24T12:24:32.464Z,22.91
2017-04-24T12:25:42.368Z,22.88
2017-04-24T12:26:52.271Z,22.94
2017-04-24T12:28:01.905Z,22.94
2017-04-24T12:29:11.774Z,22.95
2017-04-24T12:30:21.087Z,22.95
2017-04-24T12:31:31.010Z,22.94
2017-04-24T12:32:40.976Z,22.94
2017-04-24T12:33:50.896Z,22.91
2017-04-24T12:35:00.891Z,22.97
2017-04-24T12:36:10.806Z,22.97
2017-04-24T12:37:20.413Z,22.98
2017-04-24T12:38:30.636Z,22.97
2017-04-24T12:39:40.244Z,22.92
2017-04-24T12:40:50.189Z,23
2017-04-24T12:42:00.097Z,22.92
2017-04-24T12:43:09.706Z,22.95
2017-04-24T12:44:19.615Z,22.98
2017-04-24T12:45:28.621Z,22.92
2017-04-24T12:46:38.783Z,22.94
2017-04-24T12:47:48.403Z,22.91
2017-04-24T12:48:58.355Z,22.94
2017-04-24T12:50:08.599Z,22.97
2017-04-24T12:51:18.538Z,22.9
2017-04-24T12:52:28.858Z,22.91
2017-04-24T12:53:39.089Z,22.94
2017-04-24T12:54:49.099Z,22.95
2017-04-24T12:55:59.321Z,22.88
2017-04-24T12:57:09.546Z,22.97
2017-04-24T12:58:19.728Z,22.94
2017-04-24T12:59:29.638Z,22.97
2017-04-24T13:00:39.862Z,22.94
2017-04-24T13:01:49.454Z,22.95
2017-04-24T13:02:59.367Z,22.92
2017-04-24T13:04:09.080Z,22.92
2017-04-24T13:05:19.039Z,22.95
2017-04-24T13:06:29.296Z,22.94
2017-04-24T13:07:39.535Z,22.88
2017-04-24T13:08:49.798Z,22.9
2017-04-24T13:09:59.742Z,22.98
2017-04-24T13:11:09.664Z,22.94
2017-04-24T13:12:19.583Z,22.92
2017-04-24T13:13:29.600Z,22.86
2017-04-24T13:14:38.937Z,22.88
2017-04-24T13:15:48.993Z,22.85
2017-04-24T13:16:59.221Z,22.85
2017-04-24T13:18:09.159Z,22.86
2017-04-24T13:19:18.465Z,22.88
2017-04-24T13:20:28.398Z,22.9
2017-04-24T13:21:38.860Z,22.92
2017-04-24T13:22:48.175Z,22.88
2017-04-24T13:23:58.102Z,22.9
2017-04-24T13:25:08.333Z,22.91
2017-04-24T13:26:18.568Z,22.9
2017-04-24T13:27:28.938Z,22.91
2017-04-24T13:28:39.162Z,22.91
2017-04-24T13:29:48.468Z,22.88
2017-04-24T13:30:58.075Z,22.9
2017-04-24T13:32:07.995Z,22.88
2017-04-24T13:33:17.591Z,22.94
2017-04-24T13:34:27.195Z,22.9
2017-04-24T13:35:37.421Z,22.95
2017-04-24T13:36:47.033Z,22.92
2017-04-24T13:37:57.275Z,22.97
2017-04-24T13:39:07.203Z,22.91
2017-04-24T13:40:16.510Z,22.91
2017-04-24T13:41:25.509Z,22.88
2017-04-24T13:42:35.740Z,22.94
2017-04-24T13:43:45.679Z,22.94
2017-04-24T13:44:56.232Z,22.91
2017-04-24T13:46:06.464Z,22.97
2017-04-24T13:47:16.437Z,22.94
2017-04-24T13:48:26.361Z,22.92
2017-04-24T13:49:35.697Z,22.97
2017-04-24T13:50:45.137Z,22.92
2017-04-24T13:51:54.135Z,22.92
2017-04-24T13:53:03.745Z,22.94
2017-04-24T13:54:13.655Z,23
2017-04-24T13:55:23.573Z,22.97
2017-04-24T13:56:33.870Z,22.94
2017-04-24T13:57:43.793Z,22.97
2017-04-24T13:58:53.402Z,22.92
2017-04-24T14:00:03.004Z,22.95
2017-04-24T14:01:12.328Z,22.97
2017-04-24T14:02:22.382Z,23.02
2017-04-24T14:03:31.967Z,23
2017-04-24T14:04:41.578Z,22.97
2017-04-24T14:05:50.877Z,23
2017-04-24T14:07:01.082Z,22.98
2017-04-24T14:08:11.600Z,23.01
2017-04-24T14:09:20.612Z,23.09
2017-04-24T14:10:29.900Z,22.97
2017-04-24T14:11:39.500Z,23
2017-04-24T14:12:48.498Z,23.1
2017-04-24T14:13:58.406Z,23.02
2017-04-24T14:15:08.332Z,23.09
2017-04-24T14:16:17.931Z,23.04
2017-04-24T14:17:27.557Z,23
2017-04-24T14:18:37.510Z,23.1
2017-04-24T14:19:47.403Z,23.04
2017-04-24T14:20:57.010Z,23.09
2017-04-24T14:22:06.648Z,23.05
2017-04-24T14:23:16.305Z,23.02
2017-04-24T14:24:25.304Z,23.04
2017-04-24T14:25:35.160Z,23.04
2017-04-24T14:26:44.792Z,23.1
2017-04-24T14:27:54.697Z,23.02
2017-04-24T14:29:04.935Z,22.97
2017-04-24T14:30:15.150Z,23.02
2017-04-24T14:31:25.235Z,23.1
2017-04-24T14:32:35.153Z,23.01
2017-04-24T14:33:45.374Z,23.04
2017-04-24T14:34:54.677Z,22.97
2017-04-24T14:36:04.892Z,23.01
2017-04-24T14:37:14.945Z,23.1
2017-04-24T14:38:24.906Z,23.09
2017-04-24T14:39:34.838Z,23.02
2017-04-24T14:40:44.787Z,23.02
2017-04-24T14:41:55.015Z,23.05
2017-04-24T14:43:05.243Z,23.04
2017-04-24T14:44:15.461Z,23.04
2017-04-24T14:45:25.395Z,23.05
2017-04-24T14:46:35.598Z,23.05
2017-04-24T14:47:45.819Z,23.1
2017-04-24T14:48:55.806Z,23.01
2017-04-24T14:50:05.106Z,23.04
2017-04-24T14:51:15.054Z,23.04
2017-04-24T14:52:25.287Z,22.98
2017-04-24T14:53:35.199Z,22.98
2017-04-24T14:54:45.736Z,23.02
2017-04-24T14:55:55.690Z,23.07
2017-04-24T14:57:05.596Z,23.02
2017-04-24T14:58:15.502Z,23.05
2017-04-24T14:59:24.485Z,23.07
2017-04-24T15:00:34.752Z,23.09
2017-04-24T15:01:44.977Z,23.1
2017-04-24T15:02:55.194Z,23.1
2017-04-24T15:04:05.410Z,23.07
2017-04-24T15:05:15.015Z,23.07